sensor_id;sensor_type;location;lat;lon;timestamp;temperature;humidity
65040;HTU21D;51606;45.000;38.612;2023-02-15T05:36:53;1.42;79.95
65040;HTU21D;51606;45.000;38.612;2023-02-15T05:39:20;1.46;79.92
65040;HTU21D;51606;45.000;38.612;2023-02-15T05:41:46;1.50;79.88
65040;HTU21D;51606;45.000;38.612;2023-02-15T05:44:13;1.49;79.85
65040;HTU21D;51606;45.000;38.612;2023-02-15T05:46:39;1.51;79.90
65040;HTU21D;51606;45.000;38.612;2023-02-15T05:49:05;1.52;79.93
65040;HTU21D;51606;45.000;38.612;2023-02-15T05:51:32;1.54;79.98
65040;HTU21D;51606;45.000;38.612;2023-02-15T05:53:58;1.56;79.97
65040;HTU21D;51606;45.000;38.612;2023-02-15T05:56:24;1.60;79.95
65040;HTU21D;51606;45.000;38.612;2023-02-15T05:58:53;1.62;79.91
65040;HTU21D;51606;45.000;38.612;2023-02-15T06:01:20;1.61;79.93
65040;HTU21D;51606;45.000;38.612;2023-02-15T06:03:48;1.58;79.95
65040;HTU21D;51606;45.000;38.612;2023-02-15T06:06:15;1.58;80.02
65040;HTU21D;51606;45.000;38.612;2023-02-15T06:08:42;1.55;80.10
65040;HTU21D;51606;45.000;38.612;2023-02-15T06:11:09;1.56;80.14
65040;HTU21D;51606;45.000;38.612;2023-02-15T06:13:35;1.57;80.17
65040;HTU21D;51606;45.000;38.612;2023-02-15T06:16:02;1.58;80.15
65040;HTU21D;51606;45.000;38.612;2023-02-15T06:18:28;1.58;80.14
65040;HTU21D;51606;45.000;38.612;2023-02-15T06:20:55;1.61;80.14
65040;HTU21D;51606;45.000;38.612;2023-02-15T06:23:21;1.61;80.17
65040;HTU21D;51606;45.000;38.612;2023-02-15T06:25:48;1.62;80.12
65040;HTU21D;51606;45.000;38.612;2023-02-15T06:28:14;1.63;80.13
65040;HTU21D;51606;45.000;38.612;2023-02-15T06:30:40;1.65;80.15
65040;HTU21D;51606;45.000;38.612;2023-02-15T06:33:07;1.68;80.11
65040;HTU21D;51606;45.000;38.612;2023-02-15T06:35:33;1.71;80.07
65040;HTU21D;51606;45.000;38.612;2023-02-15T06:38:00;1.75;80.07
65040;HTU21D;51606;45.000;38.612;2023-02-15T06:40:26;1.78;80.07
65040;HTU21D;51606;45.000;38.612;2023-02-15T06:42:53;1.82;80.04
65040;HTU21D;51606;45.000;38.612;2023-02-15T06:45:19;1.86;80.01
65040;HTU21D;51606;45.000;38.612;2023-02-15T06:47:45;1.87;79.95
65040;HTU21D;51606;45.000;38.612;2023-02-15T06:50:12;1.87;79.96
65040;HTU21D;51606;45.000;38.612;2023-02-15T06:52:38;1.84;80.03
65040;HTU21D;51606;45.000;38.612;2023-02-15T06:55:05;1.84;80.08
65040;HTU21D;51606;45.000;38.612;2023-02-15T06:57:32;1.82;80.13
65040;HTU21D;51606;45.000;38.612;2023-02-15T06:59:59;1.77;80.20
65040;HTU21D;51606;45.000;38.612;2023-02-15T07:02:25;1.75;80.29
65040;HTU21D;51606;45.000;38.612;2023-02-15T07:04:52;1.73;80.33
65040;HTU21D;51606;45.000;38.612;2023-02-15T07:07:18;1.73;80.35
65040;HTU21D;51606;45.000;38.612;2023-02-15T07:09:44;1.77;80.33
65040;HTU21D;51606;45.000;38.612;2023-02-15T07:12:11;1.77;80.28
65040;HTU21D;51606;45.000;38.612;2023-02-15T07:14:56;1.79;80.25
65040;HTU21D;51606;45.000;38.612;2023-02-15T07:17:24;1.80;80.23
65040;HTU21D;51606;45.000;38.612;2023-02-15T07:19:54;1.83;80.24
65040;HTU21D;51606;45.000;38.612;2023-02-15T07:22:21;1.88;80.17
65040;HTU21D;51606;45.000;38.612;2023-02-15T07:24:47;1.93;80.11
65040;HTU21D;51606;45.000;38.612;2023-02-15T07:27:15;1.94;80.04
65040;HTU21D;51606;45.000;38.612;2023-02-15T07:29:41;1.95;80.05
65040;HTU21D;51606;45.000;38.612;2023-02-15T07:32:08;1.96;80.08
65040;HTU21D;51606;45.000;38.612;2023-02-15T07:34:34;1.96;80.08
65040;HTU21D;51606;45.000;38.612;2023-02-15T07:37:00;1.95;80.11
65040;HTU21D;51606;45.000;38.612;2023-02-15T07:39:27;1.92;80.17
65040;HTU21D;51606;45.000;38.612;2023-02-15T07:41:53;1.92;80.22
65040;HTU21D;51606;45.000;38.612;2023-02-15T07:44:19;1.94;80.27
65040;HTU21D;51606;45.000;38.612;2023-02-15T07:46:46;2.01;80.21
65040;HTU21D;51606;45.000;38.612;2023-02-15T07:49:12;2.07;80.17
65040;HTU21D;51606;45.000;38.612;2023-02-15T07:51:38;2.10;80.15
65040;HTU21D;51606;45.000;38.612;2023-02-15T07:54:06;2.22;80.09
65040;HTU21D;51606;45.000;38.612;2023-02-15T07:56:33;2.39;79.94
65040;HTU21D;51606;45.000;38.612;2023-02-15T07:59:00;2.60;79.66
65040;HTU21D;51606;45.000;38.612;2023-02-15T08:01:33;2.80;79.42
65040;HTU21D;51606;45.000;38.612;2023-02-15T08:04:02;2.96;79.24
65040;HTU21D;51606;45.000;38.612;2023-02-15T08:06:30;3.09;79.16
65040;HTU21D;51606;45.000;38.612;2023-02-15T08:08:57;3.17;79.14
65040;HTU21D;51606;45.000;38.612;2023-02-15T08:11:26;3.27;79.18
65040;HTU21D;51606;45.000;38.612;2023-02-15T08:16:39;3.57;79.13
65040;HTU21D;51606;45.000;38.612;2023-02-15T08:19:26;3.84;79.00
65040;HTU21D;51606;45.000;38.612;2023-02-15T08:21:59;4.04;79.06
65040;HTU21D;51606;45.000;38.612;2023-02-15T08:24:28;4.58;79.17
65040;HTU21D;51606;45.000;38.612;2023-02-15T08:26:56;5.05;78.79
65040;HTU21D;51606;45.000;38.612;2023-02-15T08:29:25;5.47;78.91
65040;HTU21D;51606;45.000;38.612;2023-02-15T08:31:57;5.85;78.84
65040;HTU21D;51606;45.000;38.612;2023-02-15T08:34:32;6.08;78.81
65040;HTU21D;51606;45.000;38.612;2023-02-15T08:36:59;6.23;78.98
65040;HTU21D;51606;45.000;38.612;2023-02-15T08:39:27;6.30;79.19
65040;HTU21D;51606;45.000;38.612;2023-02-15T08:41:53;6.63;79.81
65040;HTU21D;51606;45.000;38.612;2023-02-15T08:44:20;7.31;79.59
65040;HTU21D;51606;45.000;38.612;2023-02-15T08:46:48;7.69;79.03
65040;HTU21D;51606;45.000;38.612;2023-02-15T08:49:21;7.61;79.03
65040;HTU21D;51606;45.000;38.612;2023-02-15T08:51:48;7.34;79.06
65040;HTU21D;51606;45.000;38.612;2023-02-15T08:54:18;6.96;79.49
65040;HTU21D;51606;45.000;38.612;2023-02-15T08:56:45;6.63;80.04
65040;HTU21D;51606;45.000;38.612;2023-02-15T08:59:17;6.30;80.31
65040;HTU21D;51606;45.000;38.612;2023-02-15T09:01:44;5.90;80.69
65040;HTU21D;51606;45.000;38.612;2023-02-15T09:04:11;5.50;81.08
65040;HTU21D;51606;45.000;38.612;2023-02-15T09:06:40;5.12;81.30
65040;HTU21D;51606;45.000;38.612;2023-02-15T09:09:07;4.90;81.44
65040;HTU21D;51606;45.000;38.612;2023-02-15T09:11:37;4.77;81.30
65040;HTU21D;51606;45.000;38.612;2023-02-15T09:14:07;4.74;81.25
65040;HTU21D;51606;45.000;38.612;2023-02-15T09:16:36;4.83;80.88
65040;HTU21D;51606;45.000;38.612;2023-02-15T09:19:04;4.95;80.41
65040;HTU21D;51606;45.000;38.612;2023-02-15T09:21:33;5.13;80.20
65040;HTU21D;51606;45.000;38.612;2023-02-15T09:24:02;5.57;80.24
65040;HTU21D;51606;45.000;38.612;2023-02-15T09:26:30;6.24;79.88
65040;HTU21D;51606;45.000;38.612;2023-02-15T09:28:59;6.25;79.32
65040;HTU21D;51606;45.000;38.612;2023-02-15T09:31:32;6.02;79.24
65040;HTU21D;51606;45.000;38.612;2023-02-15T09:34:00;5.70;79.54
65040;HTU21D;51606;45.000;38.612;2023-02-15T09:36:33;5.50;79.94
65040;HTU21D;51606;45.000;38.612;2023-02-15T09:39:15;5.61;80.19
65040;HTU21D;51606;45.000;38.612;2023-02-15T09:42:08;5.65;79.77
65040;HTU21D;51606;45.000;38.612;2023-02-15T09:50:32;5.92;79.24
65040;HTU21D;51606;45.000;38.612;2023-02-15T10:01:21;6.23;79.04
65040;HTU21D;51606;45.000;38.612;2023-02-15T10:08:57;6.49;78.72
65040;HTU21D;51606;45.000;38.612;2023-02-15T10:11:56;6.35;78.72
65040;HTU21D;51606;45.000;38.612;2023-02-15T10:17:39;5.87;79.19
65040;HTU21D;51606;45.000;38.612;2023-02-15T10:23:05;5.53;79.46
65040;HTU21D;51606;45.000;38.612;2023-02-15T10:28:25;5.34;79.54
65040;HTU21D;51606;45.000;38.612;2023-02-15T10:31:09;5.34;79.36
65040;HTU21D;51606;45.000;38.612;2023-02-15T10:33:40;5.34;79.21
65040;HTU21D;51606;45.000;38.612;2023-02-15T10:36:21;5.34;79.03
65040;HTU21D;51606;45.000;38.612;2023-02-15T10:50:15;5.64;78.14
65040;HTU21D;51606;45.000;38.612;2023-02-15T11:01:27;4.47;79.21
65040;HTU21D;51606;45.000;38.612;2023-02-15T11:04:37;4.20;79.37
65040;HTU21D;51606;45.000;38.612;2023-02-15T11:07:12;3.93;79.58
65040;HTU21D;51606;45.000;38.612;2023-02-15T11:09:48;3.79;79.72
65040;HTU21D;51606;45.000;38.612;2023-02-15T11:12:23;3.75;79.69
65040;HTU21D;51606;45.000;38.612;2023-02-15T11:14:55;3.78;79.53
65040;HTU21D;51606;45.000;38.612;2023-02-15T11:17:33;3.83;79.22
65040;HTU21D;51606;45.000;38.612;2023-02-15T11:22:50;3.75;78.95
65040;HTU21D;51606;45.000;38.612;2023-02-15T11:25:34;3.65;78.95
65040;HTU21D;51606;45.000;38.612;2023-02-15T11:28:06;3.59;79.04
65040;HTU21D;51606;45.000;38.612;2023-02-15T11:30:43;3.59;78.99
65040;HTU21D;51606;45.000;38.612;2023-02-15T11:33:18;3.64;78.90
65040;HTU21D;51606;45.000;38.612;2023-02-15T11:35:55;3.74;78.72
65040;HTU21D;51606;45.000;38.612;2023-02-15T11:38:31;3.90;78.57
65040;HTU21D;51606;45.000;38.612;2023-02-15T11:41:17;4.14;78.22
65040;HTU21D;51606;45.000;38.612;2023-02-15T11:44:16;4.34;77.85
65040;HTU21D;51606;45.000;38.612;2023-02-15T11:46:42;4.38;77.79
65040;HTU21D;51606;45.000;38.612;2023-02-15T11:49:36;4.35;77.82
65040;HTU21D;51606;45.000;38.612;2023-02-15T11:52:12;4.36;77.87
65040;HTU21D;51606;45.000;38.612;2023-02-15T11:54:44;4.22;77.80
65040;HTU21D;51606;45.000;38.612;2023-02-15T11:57:17;4.07;78.08
65040;HTU21D;51606;45.000;38.612;2023-02-15T12:00:00;4.06;78.28
65040;HTU21D;51606;45.000;38.612;2023-02-15T12:02:36;4.09;78.25
65040;HTU21D;51606;45.000;38.612;2023-02-15T12:05:26;4.14;78.21
65040;HTU21D;51606;45.000;38.612;2023-02-15T12:07:57;4.21;78.01
65040;HTU21D;51606;45.000;38.612;2023-02-15T12:10:34;4.22;77.84
65040;HTU21D;51606;45.000;38.612;2023-02-15T12:15:43;4.05;77.94
65040;HTU21D;51606;45.000;38.612;2023-02-15T12:21:10;3.90;78.18
65040;HTU21D;51606;45.000;38.612;2023-02-15T12:24:00;3.89;78.14
65040;HTU21D;51606;45.000;38.612;2023-02-15T12:26:31;3.80;78.18
65040;HTU21D;51606;45.000;38.612;2023-02-15T12:29:07;3.74;78.29
65040;HTU21D;51606;45.000;38.612;2023-02-15T12:31:41;3.70;78.35
65040;HTU21D;51606;45.000;38.612;2023-02-15T12:36:54;3.68;78.35
65040;HTU21D;51606;45.000;38.612;2023-02-15T12:39:28;3.65;78.34
65040;HTU21D;51606;45.000;38.612;2023-02-15T12:44:34;3.55;78.33
65040;HTU21D;51606;45.000;38.612;2023-02-15T12:49:44;3.42;78.47
65040;HTU21D;51606;45.000;38.612;2023-02-15T12:54:47;3.24;78.56
65040;HTU21D;51606;45.000;38.612;2023-02-15T13:02:22;3.00;78.71
65040;HTU21D;51606;45.000;38.612;2023-02-15T13:04:50;2.93;78.75
65040;HTU21D;51606;45.000;38.612;2023-02-15T13:07:17;2.86;78.79
65040;HTU21D;51606;45.000;38.612;2023-02-15T13:09:44;2.82;78.81
65040;HTU21D;51606;45.000;38.612;2023-02-15T13:12:23;2.81;78.78
65040;HTU21D;51606;45.000;38.612;2023-02-15T13:14:54;2.81;78.75
65040;HTU21D;51606;45.000;38.612;2023-02-15T13:17:31;2.85;78.63
65040;HTU21D;51606;45.000;38.612;2023-02-15T13:20:17;2.88;78.53
65040;HTU21D;51606;45.000;38.612;2023-02-15T13:22:46;2.94;78.48
65040;HTU21D;51606;45.000;38.612;2023-02-15T13:25:22;2.99;78.33
65040;HTU21D;51606;45.000;38.612;2023-02-15T13:27:52;3.00;78.28
65040;HTU21D;51606;45.000;38.612;2023-02-15T13:30:46;2.97;78.30
65040;HTU21D;51606;45.000;38.612;2023-02-15T13:33:32;2.86;78.34
65040;HTU21D;51606;45.000;38.612;2023-02-15T13:39:05;2.39;78.94
65040;HTU21D;51606;45.000;38.612;2023-02-15T13:44:55;1.94;79.62
65040;HTU21D;51606;45.000;38.612;2023-02-15T13:47:26;1.78;79.82
65040;HTU21D;51606;45.000;38.612;2023-02-15T14:01:01;1.62;79.49
65040;HTU21D;51606;45.000;38.612;2023-02-15T14:18:27;1.29;79.37
65040;HTU21D;51606;45.000;38.612;2023-02-15T14:35:02;0.92;79.45
65040;HTU21D;51606;45.000;38.612;2023-02-15T14:40:48;0.92;79.32
65040;HTU21D;51606;45.000;38.612;2023-02-15T14:46:30;0.83;79.30
65040;HTU21D;51606;45.000;38.612;2023-02-15T14:49:05;0.79;79.33
65040;HTU21D;51606;45.000;38.612;2023-02-15T15:02:50;0.73;79.23
65040;HTU21D;51606;45.000;38.612;2023-02-15T15:05:20;0.69;79.23
65040;HTU21D;51606;45.000;38.612;2023-02-15T15:07:53;0.65;79.27
65040;HTU21D;51606;45.000;38.612;2023-02-15T15:12:51;0.58;79.37
65040;HTU21D;51606;45.000;38.612;2023-02-15T15:20:48;0.44;79.51
65040;HTU21D;51606;45.000;38.612;2023-02-15T15:47:33;-0.39;80.29
65040;HTU21D;51606;45.000;38.612;2023-02-15T15:50:15;-0.55;80.52
65040;HTU21D;51606;45.000;38.612;2023-02-15T15:52:55;-0.72;80.67
65040;HTU21D;51606;45.000;38.612;2023-02-15T15:55:28;-0.85;80.89
65040;HTU21D;51606;45.000;38.612;2023-02-15T15:58:06;-0.96;80.98
65040;HTU21D;51606;45.000;38.612;2023-02-15T16:00:49;-1.06;81.01
65040;HTU21D;51606;45.000;38.612;2023-02-15T16:03:27;-1.17;80.99
65040;HTU21D;51606;45.000;38.612;2023-02-15T16:05:55;-1.27;81.10
65040;HTU21D;51606;45.000;38.612;2023-02-15T16:08:33;-1.35;81.09
65040;HTU21D;51606;45.000;38.612;2023-02-15T16:11:10;-1.46;81.10
65040;HTU21D;51606;45.000;38.612;2023-02-15T16:13:42;-1.54;81.17
65040;HTU21D;51606;45.000;38.612;2023-02-15T16:16:12;-1.61;81.17
65040;HTU21D;51606;45.000;38.612;2023-02-15T16:18:39;-1.69;81.20
65040;HTU21D;51606;45.000;38.612;2023-02-15T16:21:23;-1.75;81.11
65040;HTU21D;51606;45.000;38.612;2023-02-15T16:24:24;-1.82;81.06
65040;HTU21D;51606;45.000;38.612;2023-02-15T16:26:59;-1.86;81.10
65040;HTU21D;51606;45.000;38.612;2023-02-15T16:29:31;-1.90;81.06
65040;HTU21D;51606;45.000;38.612;2023-02-15T16:32:04;-1.94;80.96
65040;HTU21D;51606;45.000;38.612;2023-02-15T16:34:32;-2.00;80.99
65040;HTU21D;51606;45.000;38.612;2023-02-15T16:37:20;-2.05;80.90
65040;HTU21D;51606;45.000;38.612;2023-02-15T16:39:50;-2.05;80.91
65040;HTU21D;51606;45.000;38.612;2023-02-15T16:42:17;-2.04;80.85
65040;HTU21D;51606;45.000;38.612;2023-02-15T16:45:08;-2.07;80.69
65040;HTU21D;51606;45.000;38.612;2023-02-15T16:47:44;-2.06;80.65
65040;HTU21D;51606;45.000;38.612;2023-02-15T16:50:22;-2.08;80.59
65040;HTU21D;51606;45.000;38.612;2023-02-15T16:52:49;-2.07;80.57
65040;HTU21D;51606;45.000;38.612;2023-02-15T16:55:25;-2.06;80.46
65040;HTU21D;51606;45.000;38.612;2023-02-15T16:57:59;-2.03;80.40
65040;HTU21D;51606;45.000;38.612;2023-02-15T17:00:31;-1.98;80.30
65040;HTU21D;51606;45.000;38.612;2023-02-15T17:02:59;-1.93;80.20
65040;HTU21D;51606;45.000;38.612;2023-02-15T17:05:48;-1.86;80.04
65040;HTU21D;51606;45.000;38.612;2023-02-15T17:08:30;-1.77;79.95
65040;HTU21D;51606;45.000;38.612;2023-02-15T17:13:27;-1.57;79.70
65040;HTU21D;51606;45.000;38.612;2023-02-15T17:18:28;-1.34;79.41
65040;HTU21D;51606;45.000;38.612;2023-02-15T17:23:43;-1.12;79.16
65040;HTU21D;51606;45.000;38.612;2023-02-15T17:28:58;-1.06;79.08
65040;HTU21D;51606;45.000;38.612;2023-02-15T17:31:29;-1.05;79.14
65040;HTU21D;51606;45.000;38.612;2023-02-15T17:33:58;-1.08;79.19
65040;HTU21D;51606;45.000;38.612;2023-02-15T17:36:27;-1.11;79.25
65040;HTU21D;51606;45.000;38.612;2023-02-15T17:41:29;-1.24;79.56
65040;HTU21D;51606;45.000;38.612;2023-02-15T17:43:57;-1.32;79.75
65040;HTU21D;51606;45.000;38.612;2023-02-15T17:46:24;-1.36;79.82
65040;HTU21D;51606;45.000;38.612;2023-02-15T17:48:53;-1.40;79.91
65040;HTU21D;51606;45.000;38.612;2023-02-15T17:51:21;-1.43;79.98
65040;HTU21D;51606;45.000;38.612;2023-02-15T17:53:48;-1.39;80.01
